createdAt,value
2018-06-10T00:01:40.782Z,19.97
2018-06-10T00:04:09.281Z,20.30
2018-06-10T00:06:38.004Z,20.77
2018-06-10T00:09:07.485Z,20.13
2018-06-10T00:11:36.166Z,20.30
2018-06-10T00:14:04.642Z,20.90
2018-06-10T00:16:33.116Z,21.63
2018-06-10T00:19:02.122Z,20.87
2018-06-10T00:21:30.569Z,21.53
2018-06-10T00:23:59.006Z,20.20
2018-06-10T00:26:27.633Z,21.63
2018-06-10T00:29:01.313Z,21.57
2018-06-10T00:31:29.489Z,22.13
2018-06-10T00:33:57.960Z,21.77
2018-06-10T00:36:26.398Z,21.97
2018-06-10T00:38:54.866Z,23.10
2018-06-10T00:41:23.310Z,22.60
2018-06-10T00:43:51.758Z,22.97
2018-06-10T00:46:37.165Z,21.90
2018-06-10T00:49:05.698Z,21.97
2018-06-10T00:51:34.296Z,21.43
2018-06-10T00:54:02.718Z,21.00
2018-06-10T00:56:42.414Z,20.33
2018-06-10T00:59:10.863Z,21.47
2018-06-10T01:01:39.341Z,21.60
2018-06-10T01:04:07.818Z,20.97
2018-06-10T01:06:36.261Z,21.13
2018-06-10T01:09:07.306Z,22.23
2018-06-10T01:11:36.167Z,20.57
2018-06-10T01:14:04.981Z,22.77
2018-06-10T01:16:33.881Z,21.10
2018-06-10T01:19:02.775Z,22.70
2018-06-10T01:21:31.250Z,21.70
2018-06-10T01:23:59.447Z,23.70
2018-06-10T01:26:33.356Z,24.87
2018-06-10T01:29:01.812Z,23.97
2018-06-10T01:31:30.337Z,22.87
2018-06-10T01:33:58.815Z,24.00
2018-06-10T01:36:27.283Z,22.90
2018-06-10T01:38:55.798Z,23.80
2018-06-10T01:41:24.189Z,22.63
2018-06-10T01:43:52.717Z,23.50
2018-06-10T01:46:21.200Z,22.70
2018-06-10T01:48:49.642Z,21.47
2018-06-10T01:51:18.020Z,23.63
2018-06-10T01:53:46.480Z,23.67
2018-06-10T01:56:14.915Z,23.80
2018-06-10T01:58:43.328Z,24.30
2018-06-10T02:01:11.767Z,24.83
2018-06-10T02:03:40.189Z,23.20
2018-06-10T02:06:08.693Z,22.80
2018-06-10T02:08:37.180Z,22.73
2018-06-10T02:11:05.668Z,23.27
2018-06-10T02:13:34.164Z,22.93
2018-06-10T02:16:02.564Z,22.77
2018-06-10T02:18:31.004Z,23.03
2018-06-10T02:20:59.434Z,22.27
2018-06-10T02:23:27.856Z,22.53
2018-06-10T02:25:56.307Z,23.03
2018-06-10T02:28:24.728Z,21.17
2018-06-10T02:30:53.217Z,22.13
2018-06-10T02:33:21.857Z,22.53
2018-06-10T02:35:50.296Z,23.17
2018-06-10T02:38:18.764Z,22.37
2018-06-10T02:40:47.229Z,24.73
2018-06-10T02:43:15.712Z,22.87
2018-06-10T02:45:44.165Z,22.77
2018-06-10T02:48:12.684Z,23.07
2018-06-10T02:50:41.206Z,22.90
2018-06-10T02:53:09.707Z,22.17
2018-06-10T02:55:38.250Z,22.37
2018-06-10T02:58:06.742Z,22.53
2018-06-10T03:00:35.240Z,22.70
2018-06-10T03:03:03.633Z,22.87
2018-06-10T03:05:32.099Z,23.37
2018-06-10T03:08:00.517Z,22.30
2018-06-10T03:10:29.050Z,21.77
2018-06-10T03:12:57.515Z,22.37
2018-06-10T03:15:25.947Z,21.33
2018-06-10T03:17:54.352Z,20.50
2018-06-10T03:20:22.865Z,21.27
2018-06-10T03:22:51.344Z,21.17
2018-06-10T03:25:19.790Z,21.93
2018-06-10T03:27:48.289Z,22.33
2018-06-10T03:30:16.781Z,21.87
2018-06-10T03:32:45.249Z,21.23
2018-06-10T03:35:13.779Z,21.97
2018-06-10T03:37:42.241Z,21.40
2018-06-10T03:40:10.727Z,21.00
2018-06-10T03:42:39.256Z,18.90
2018-06-10T03:45:07.664Z,20.73
2018-06-10T03:47:36.067Z,20.67
2018-06-10T03:50:04.573Z,20.17
2018-06-10T03:52:33.064Z,20.80
2018-06-10T03:55:01.497Z,20.50
2018-06-10T03:57:29.937Z,20.30
2018-06-10T03:59:58.524Z,20.63
2018-06-10T04:02:27.038Z,21.00
2018-06-10T04:04:55.534Z,20.57
2018-06-10T04:07:23.990Z,20.80
2018-06-10T04:09:52.527Z,21.10
2018-06-10T04:12:20.977Z,21.13
2018-06-10T04:14:49.355Z,20.47
2018-06-10T04:17:18.671Z,20.13
2018-06-10T04:19:47.098Z,20.20
2018-06-10T04:22:15.513Z,19.77
2018-06-10T04:24:43.966Z,19.27
2018-06-10T04:27:12.377Z,20.20
2018-06-10T04:29:40.798Z,18.97
2018-06-10T04:32:09.228Z,19.10
2018-06-10T04:34:37.669Z,19.67
2018-06-10T04:37:06.091Z,17.73
2018-06-10T04:39:34.649Z,18.50
2018-06-10T04:42:03.189Z,18.43
2018-06-10T04:44:32.570Z,18.63
2018-06-10T04:47:00.975Z,18.60
2018-06-10T04:49:29.458Z,18.50
2018-06-10T04:51:57.629Z,17.93
2018-06-10T04:54:25.750Z,17.30
2018-06-10T04:56:54.188Z,16.00
2018-06-10T04:59:22.741Z,17.03
2018-06-10T05:01:51.244Z,16.87
2018-06-10T05:04:19.712Z,15.30
2018-06-10T05:06:48.139Z,15.93
2018-06-10T05:09:16.589Z,17.17
2018-06-10T05:11:45.035Z,16.20
2018-06-10T05:14:19.920Z,16.57
2018-06-10T05:16:48.383Z,16.43
2018-06-10T05:19:16.860Z,15.43
2018-06-10T05:21:45.308Z,15.53
2018-06-10T05:24:13.775Z,14.67
2018-06-10T05:26:42.229Z,14.63
2018-06-10T05:29:10.863Z,14.53
2018-06-10T05:31:39.381Z,15.77
2018-06-10T05:34:08.197Z,14.60
2018-06-10T05:36:36.714Z,14.77
2018-06-10T05:39:08.155Z,14.87
2018-06-10T05:41:36.658Z,14.43
2018-06-10T05:44:05.278Z,17.07
2018-06-10T05:46:33.756Z,14.17
2018-06-10T05:49:02.185Z,12.87
2018-06-10T05:51:30.600Z,13.50
2018-06-10T05:53:59.027Z,13.83
2018-06-10T05:56:27.475Z,14.00
2018-06-10T05:58:55.942Z,14.20
2018-06-10T06:01:24.512Z,14.93
2018-06-10T06:03:52.619Z,14.73
2018-06-10T06:06:21.044Z,13.23
2018-06-10T06:08:49.557Z,14.07
2018-06-10T06:11:18.042Z,13.10
2018-06-10T06:13:46.497Z,13.63
2018-06-10T06:16:15.046Z,14.17
2018-06-10T06:18:43.627Z,13.43
2018-06-10T06:21:12.138Z,13.93
2018-06-10T06:23:40.658Z,13.70
2018-06-10T06:26:09.182Z,13.03
2018-06-10T06:28:37.583Z,13.53
2018-06-10T06:31:06.036Z,13.33
2018-06-10T06:33:34.475Z,13.77
2018-06-10T06:36:02.915Z,12.77
2018-06-10T06:38:31.378Z,12.33
2018-06-10T06:40:59.838Z,12.67
2018-06-10T06:43:28.275Z,13.33
2018-06-10T06:45:56.478Z,12.93
2018-06-10T06:48:24.967Z,13.33
2018-06-10T06:50:53.412Z,13.40
2018-06-10T06:53:21.935Z,12.83
2018-06-10T06:55:50.405Z,12.17
2018-06-10T06:58:18.831Z,13.37
2018-06-10T07:00:47.305Z,12.37
2018-06-10T07:03:15.833Z,14.10
2018-06-10T07:05:44.264Z,13.40
2018-06-10T07:08:12.731Z,13.67
2018-06-10T07:10:41.189Z,15.67
2018-06-10T07:13:09.666Z,15.50
2018-06-10T07:15:38.159Z,15.63
2018-06-10T07:18:06.599Z,16.67
2018-06-10T07:20:35.109Z,16.77
2018-06-10T07:23:03.691Z,16.70
2018-06-10T07:25:32.247Z,17.17
2018-06-10T07:28:00.376Z,16.57
2018-06-10T07:30:29.119Z,15.23
2018-06-10T07:32:57.727Z,19.13
2018-06-10T07:35:26.274Z,20.20
2018-06-10T07:37:54.445Z,19.60
2018-06-10T07:40:22.899Z,18.80
2018-06-10T07:42:51.403Z,17.17
2018-06-10T07:45:19.894Z,17.70
2018-06-10T07:47:48.497Z,18.70
2018-06-10T07:50:17.040Z,18.53
2018-06-10T07:52:45.573Z,17.07
2018-06-10T07:55:14.054Z,18.07
2018-06-10T07:57:42.545Z,42.23
2018-06-10T08:00:11.063Z,18.20
2018-06-10T08:02:39.587Z,17.60
2018-06-10T08:05:08.271Z,18.50
2018-06-10T08:07:36.800Z,16.60
2018-06-10T08:10:05.418Z,16.60
2018-06-10T08:12:34.018Z,16.30
2018-06-10T08:15:02.574Z,17.77
2018-06-10T08:17:31.191Z,18.77
2018-06-10T08:19:59.681Z,17.50
2018-06-10T08:22:28.253Z,17.90
2018-06-10T08:24:56.699Z,17.17
2018-06-10T08:27:25.322Z,17.93
2018-06-10T08:29:53.846Z,18.57
2018-06-10T08:32:22.429Z,16.87
2018-06-10T08:34:50.896Z,16.10
2018-06-10T08:37:19.494Z,15.50
2018-06-10T08:39:48.095Z,15.07
2018-06-10T08:42:16.713Z,18.57
2018-06-10T08:44:45.293Z,16.87
2018-06-10T08:47:13.874Z,17.67
2018-06-10T08:49:42.402Z,17.40
2018-06-10T08:52:11.392Z,17.47
2018-06-10T08:54:40.040Z,19.07
2018-06-10T08:57:08.607Z,17.60
2018-06-10T08:59:37.124Z,17.97
2018-06-10T09:02:05.591Z,19.00
2018-06-10T09:04:34.141Z,17.90
2018-06-10T09:07:02.635Z,18.97
2018-06-10T09:09:31.171Z,18.27
2018-06-10T09:11:59.646Z,18.27
2018-06-10T09:14:28.145Z,20.63
2018-06-10T09:16:56.710Z,18.97
2018-06-10T09:19:25.355Z,18.17
2018-06-10T09:21:53.883Z,18.47
2018-06-10T09:24:22.468Z,18.23
2018-06-10T09:26:51.111Z,16.73
2018-06-10T09:29:19.657Z,18.67
2018-06-10T09:31:48.329Z,18.87
2018-06-10T09:34:16.845Z,18.77
2018-06-10T09:36:45.540Z,17.80
2018-06-10T09:39:14.027Z,17.90
2018-06-10T09:41:42.505Z,16.63
2018-06-10T09:44:11.072Z,17.27
2018-06-10T09:46:39.502Z,18.00
2018-06-10T09:49:07.977Z,16.83
2018-06-10T09:51:36.617Z,18.70
2018-06-10T09:54:05.181Z,16.87
2018-06-10T09:56:33.716Z,16.40
2018-06-10T09:59:02.249Z,19.73
2018-06-10T10:01:30.689Z,18.50
2018-06-10T10:03:59.237Z,19.33
2018-06-10T10:06:27.736Z,20.37
2018-06-10T10:08:56.296Z,19.37
2018-06-10T10:11:24.827Z,19.03
2018-06-10T10:13:53.349Z,22.93
2018-06-10T10:16:21.824Z,18.27
2018-06-10T10:18:50.327Z,19.63
2018-06-10T10:21:18.934Z,17.67
2018-06-10T10:23:47.457Z,17.33
2018-06-10T10:26:16.049Z,16.70
2018-06-10T10:28:44.552Z,15.07
2018-06-10T10:31:13.179Z,16.43
2018-06-10T10:33:41.688Z,15.57
2018-06-10T10:36:10.282Z,17.97
2018-06-10T10:38:38.907Z,17.17
2018-06-10T10:41:07.299Z,18.00
2018-06-10T10:43:35.976Z,19.00
2018-06-10T10:46:04.543Z,17.60
2018-06-10T10:48:33.324Z,16.70
2018-06-10T10:51:01.822Z,16.40
2018-06-10T10:53:30.391Z,16.23
2018-06-10T10:55:59.060Z,16.30
2018-06-10T10:58:27.685Z,16.47
2018-06-10T11:00:56.207Z,17.13
2018-06-10T11:03:24.689Z,15.77
2018-06-10T11:05:53.174Z,14.73
2018-06-10T11:08:21.719Z,14.37
2018-06-10T11:10:50.261Z,13.93
2018-06-10T11:13:18.700Z,13.43
2018-06-10T11:15:47.221Z,12.87
2018-06-10T11:18:15.687Z,12.00
2018-06-10T11:20:44.151Z,12.80
2018-06-10T11:23:12.617Z,12.43
2018-06-10T11:25:41.081Z,11.67
2018-06-10T11:28:09.757Z,10.97
2018-06-10T11:30:38.334Z,11.43
2018-06-10T11:33:06.997Z,10.90
2018-06-10T11:35:35.580Z,11.30
2018-06-10T11:38:04.077Z,10.77
2018-06-10T11:40:32.786Z,10.80
2018-06-10T11:43:01.471Z,10.10
2018-06-10T11:45:29.988Z,11.37
2018-06-10T11:47:58.483Z,10.67
2018-06-10T11:50:26.972Z,10.30
2018-06-10T11:52:55.372Z,9.80
2018-06-10T11:55:23.856Z,9.93
2018-06-10T11:57:52.325Z,9.47
2018-06-10T12:00:20.847Z,10.13
2018-06-10T12:02:49.397Z,9.87
2018-06-10T12:05:17.945Z,9.97
2018-06-10T12:07:46.446Z,8.90
2018-06-10T12:10:14.983Z,8.63
2018-06-10T12:12:43.604Z,8.80
2018-06-10T12:15:12.080Z,8.07
2018-06-10T12:17:40.596Z,7.33
2018-06-10T12:20:11.877Z,7.37
2018-06-10T12:22:40.407Z,7.13
2018-06-10T12:25:08.801Z,7.63
2018-06-10T12:27:37.454Z,7.70
2018-06-10T12:30:05.892Z,7.40
2018-06-10T12:32:34.336Z,7.80
2018-06-10T12:35:02.855Z,7.17
2018-06-10T12:37:31.344Z,17.03
2018-06-10T12:39:59.814Z,5.80
2018-06-10T12:42:28.265Z,6.40
2018-06-10T12:44:56.721Z,6.40
2018-06-10T12:47:25.226Z,6.47
2018-06-10T12:49:53.711Z,6.37
2018-06-10T12:52:22.332Z,5.93
2018-06-10T12:54:50.979Z,6.80
2018-06-10T12:57:19.489Z,5.90
2018-06-10T12:59:47.942Z,6.07
2018-06-10T13:02:16.401Z,5.70
2018-06-10T13:04:44.950Z,6.30
2018-06-10T13:07:13.453Z,6.20
2018-06-10T13:09:41.888Z,6.00
2018-06-10T13:12:10.424Z,5.40
2018-06-10T13:14:38.926Z,6.27
2018-06-10T13:17:07.404Z,6.03
2018-06-10T13:19:35.904Z,6.13
2018-06-10T13:22:04.326Z,6.27
2018-06-10T13:24:32.830Z,5.70
2018-06-10T13:27:01.289Z,5.50
2018-06-10T13:29:29.751Z,6.10
2018-06-10T13:31:58.267Z,6.03
2018-06-10T13:34:26.940Z,5.83
2018-06-10T13:36:55.399Z,5.93
2018-06-10T13:39:23.867Z,6.73
2018-06-10T13:41:52.321Z,6.27
2018-06-10T13:44:20.905Z,6.40
2018-06-10T13:46:49.432Z,6.20
2018-06-10T13:49:17.884Z,6.20
2018-06-10T13:51:46.538Z,5.63
2018-06-10T13:54:15.136Z,6.00
2018-06-10T13:56:43.870Z,6.17
2018-06-10T13:59:12.077Z,6.40
2018-06-10T14:01:40.551Z,6.80
2018-06-10T14:04:09.132Z,6.97
2018-06-10T14:06:37.819Z,6.60
2018-06-10T14:09:07.050Z,7.17
2018-06-10T14:11:35.697Z,7.13
2018-06-10T14:14:04.265Z,6.93
2018-06-10T14:16:32.851Z,7.73
2018-06-10T14:19:01.375Z,7.53
2018-06-10T14:21:29.962Z,6.67
2018-06-10T14:23:58.629Z,7.40
2018-06-10T14:26:27.703Z,6.70
2018-06-10T14:28:56.184Z,7.10
2018-06-10T14:31:24.781Z,7.13
2018-06-10T14:33:53.379Z,7.03
2018-06-10T14:36:21.937Z,6.90
2018-06-10T14:38:50.727Z,7.20
2018-06-10T14:41:19.234Z,6.73
2018-06-10T14:43:47.715Z,7.27
2018-06-10T14:46:16.157Z,7.23
2018-06-10T14:48:44.842Z,7.07
2018-06-10T14:51:13.250Z,7.27
2018-06-10T14:53:41.803Z,6.93
2018-06-10T14:56:10.394Z,7.40
2018-06-10T14:58:39.492Z,6.63
2018-06-10T15:01:08.050Z,7.07
2018-06-10T15:03:36.510Z,7.00
2018-06-10T15:06:05.108Z,7.63
2018-06-10T15:08:33.798Z,7.10
2018-06-10T15:11:02.328Z,7.47
2018-06-10T15:13:31.052Z,7.33
2018-06-10T15:15:59.728Z,7.60
2018-06-10T15:18:28.339Z,7.13
2018-06-10T15:20:56.630Z,7.57
2018-06-10T15:23:25.063Z,7.80
2018-06-10T15:25:53.596Z,7.47
2018-06-10T15:28:22.306Z,7.87
2018-06-10T15:30:50.973Z,6.57
2018-06-10T15:33:19.588Z,6.73
2018-06-10T15:35:48.121Z,6.93
2018-06-10T15:38:16.669Z,6.80
2018-06-10T15:40:45.318Z,6.67
2018-06-10T15:43:13.773Z,6.00
2018-06-10T15:45:42.282Z,5.27
2018-06-10T15:48:10.872Z,6.10
2018-06-10T15:50:39.394Z,5.87
2018-06-10T15:53:08.299Z,5.63
2018-06-10T15:55:36.887Z,5.00
2018-06-10T15:58:05.530Z,5.53
2018-06-10T16:00:34.264Z,4.97
2018-06-10T16:03:02.816Z,5.40
2018-06-10T16:05:31.424Z,5.20
2018-06-10T16:07:59.950Z,5.53
2018-06-10T16:10:28.613Z,5.77
2018-06-10T16:12:57.455Z,5.73
2018-06-10T16:15:25.901Z,5.00
2018-06-10T16:17:54.560Z,5.50
2018-06-10T16:20:23.068Z,5.33
2018-06-10T16:22:51.552Z,5.37
2018-06-10T16:25:20.018Z,5.00
2018-06-10T16:27:48.607Z,5.20
2018-06-10T16:30:17.115Z,5.07
2018-06-10T16:32:45.554Z,4.60
2018-06-10T16:35:14.228Z,4.70
2018-06-10T16:37:42.926Z,5.30
2018-06-10T16:40:11.405Z,3.83
2018-06-10T16:42:40.022Z,7.67
2018-06-10T16:45:08.490Z,10.80
2018-06-10T16:47:36.989Z,38.23
2018-06-10T16:50:05.589Z,6.07
2018-06-10T16:52:34.102Z,11.60
2018-06-10T16:55:02.700Z,19.77
2018-06-10T16:57:31.489Z,13.43
2018-06-10T17:00:00.568Z,3.97
2018-06-10T17:02:29.180Z,4.10
2018-06-10T17:04:57.715Z,4.07
2018-06-10T17:07:26.281Z,4.37
2018-06-10T17:09:55.188Z,4.17
2018-06-10T17:12:24.805Z,3.90
2018-06-10T17:14:53.551Z,3.90
2018-06-10T17:17:22.363Z,3.97
2018-06-10T17:19:50.871Z,3.83
2018-06-10T17:22:19.539Z,4.30
2018-06-10T17:24:48.402Z,3.80
2018-06-10T17:27:17.105Z,4.10
2018-06-10T17:29:45.415Z,4.00
2018-06-10T17:32:14.097Z,3.80
2018-06-10T17:34:42.720Z,4.20
2018-06-10T17:37:11.594Z,3.50
2018-06-10T17:39:40.152Z,3.90
2018-06-10T17:42:08.755Z,3.93
2018-06-10T17:44:37.442Z,3.80
2018-06-10T17:47:06.150Z,3.60
2018-06-10T17:49:35.248Z,3.70
2018-06-10T17:52:04.509Z,4.00
2018-06-10T17:54:33.166Z,4.20
2018-06-10T17:57:01.804Z,4.57
2018-06-10T17:59:30.475Z,4.43
2018-06-10T18:01:59.042Z,4.10
2018-06-10T18:04:28.217Z,4.13
2018-06-10T18:06:57.012Z,3.63
2018-06-10T18:09:25.411Z,4.47
2018-06-10T18:11:54.321Z,4.10
2018-06-10T18:14:23.656Z,4.60
2018-06-10T18:16:52.995Z,4.20
2018-06-10T18:19:21.842Z,4.13
2018-06-10T18:21:50.641Z,4.13
2018-06-10T18:24:20.575Z,4.20
2018-06-10T18:26:50.603Z,3.83
2018-06-10T18:29:21.411Z,3.60
2018-06-10T18:31:50.892Z,4.50
2018-06-10T18:34:20.213Z,3.80
2018-06-10T18:36:49.620Z,4.40
2018-06-10T18:39:18.528Z,4.27
2018-06-10T18:41:48.064Z,4.10
2018-06-10T18:44:16.982Z,5.37
2018-06-10T18:46:46.009Z,4.23
2018-06-10T18:49:15.038Z,4.20
2018-06-10T18:51:43.689Z,4.07
2018-06-10T18:54:12.385Z,4.63
2018-06-10T18:56:41.090Z,4.37
2018-06-10T18:59:09.726Z,4.63
2018-06-10T19:01:38.663Z,4.37
2018-06-10T19:04:07.612Z,4.03
2018-06-10T19:06:36.732Z,3.80
2018-06-10T19:09:09.018Z,4.03
2018-06-10T19:11:37.963Z,4.30
2018-06-10T19:14:06.577Z,7.07
2018-06-10T19:16:35.083Z,4.20
2018-06-10T19:19:03.888Z,4.37
2018-06-10T19:21:32.489Z,4.53
2018-06-10T19:24:01.115Z,3.97
2018-06-10T19:26:29.667Z,4.30
2018-06-10T19:28:58.396Z,3.67
2018-06-10T19:31:27.430Z,4.30
2018-06-10T19:33:56.324Z,3.83
2018-06-10T19:36:26.250Z,4.43
2018-06-10T19:38:55.181Z,4.67
2018-06-10T19:41:25.875Z,4.37
2018-06-10T19:43:55.839Z,4.57
2018-06-10T19:46:26.548Z,4.70
2018-06-10T19:48:55.442Z,4.77
2018-06-10T19:51:24.125Z,4.83
2018-06-10T19:53:53.002Z,4.90
2018-06-10T19:56:21.902Z,4.67
2018-06-10T19:58:50.406Z,4.43
2018-06-10T20:01:19.216Z,6.00
2018-06-10T20:03:47.732Z,5.60
2018-06-10T20:06:16.420Z,5.37
2018-06-10T20:08:45.013Z,5.80
2018-06-10T20:11:13.937Z,5.93
2018-06-10T20:13:43.641Z,6.43
2018-06-10T20:16:12.440Z,5.30
2018-06-10T20:18:41.267Z,5.57
2018-06-10T20:21:10.306Z,5.00
2018-06-10T20:23:39.079Z,5.57
2018-06-10T20:26:07.858Z,5.23
2018-06-10T20:28:36.621Z,5.80
2018-06-10T20:31:05.242Z,5.30
2018-06-10T20:33:33.829Z,5.63
2018-06-10T20:36:02.394Z,5.27
2018-06-10T20:38:31.016Z,5.30
2018-06-10T20:40:59.588Z,5.17
2018-06-10T20:43:28.234Z,6.17
2018-06-10T20:45:56.454Z,5.57
2018-06-10T20:48:25.068Z,7.57
2018-06-10T20:50:53.326Z,5.50
2018-06-10T20:53:22.020Z,6.03
2018-06-10T20:55:50.697Z,5.23
2018-06-10T20:58:19.213Z,5.40
2018-06-10T21:00:47.729Z,5.90
2018-06-10T21:03:16.335Z,6.30
2018-06-10T21:05:45.020Z,6.10
2018-06-10T21:08:13.561Z,5.83
2018-06-10T21:10:42.166Z,5.63
2018-06-10T21:13:10.672Z,6.07
2018-06-10T21:15:40.150Z,5.77
2018-06-10T21:18:08.650Z,6.57
2018-06-10T21:20:37.137Z,6.20
2018-06-10T21:23:05.579Z,6.17
2018-06-10T21:25:34.006Z,6.37
2018-06-10T21:28:02.750Z,5.90
2018-06-10T21:30:31.297Z,6.73
2018-06-10T21:32:59.848Z,15.97
2018-06-10T21:35:28.309Z,6.30
2018-06-10T21:37:56.786Z,6.30
2018-06-10T21:40:25.320Z,6.07
2018-06-10T21:42:53.772Z,6.80
2018-06-10T21:45:22.224Z,6.73
2018-06-10T21:47:50.337Z,6.37
2018-06-10T21:50:18.806Z,7.20
2018-06-10T21:52:47.370Z,6.80
2018-06-10T21:55:16.343Z,6.60
2018-06-10T21:57:44.809Z,6.47
2018-06-10T22:00:23.950Z,6.60
2018-06-10T22:02:52.712Z,6.30
2018-06-10T22:05:21.671Z,6.90
2018-06-10T22:07:50.330Z,6.97
2018-06-10T22:10:19.070Z,7.30
2018-06-10T22:12:47.524Z,7.30
2018-06-10T22:15:16.271Z,7.73
2018-06-10T22:17:44.661Z,7.47
2018-06-10T22:20:12.797Z,7.00
2018-06-10T22:22:41.261Z,7.80
2018-06-10T22:25:09.709Z,7.23
2018-06-10T22:27:38.123Z,7.83
2018-06-10T22:30:06.674Z,7.60
2018-06-10T22:32:35.156Z,7.43
2018-06-10T22:35:03.636Z,7.57
2018-06-10T22:37:32.045Z,7.83
2018-06-10T22:40:00.658Z,7.83
2018-06-10T22:42:29.117Z,8.80
2018-06-10T22:44:57.594Z,8.37
2018-06-10T22:47:26.344Z,9.07
2018-06-10T22:49:55.115Z,8.10
2018-06-10T22:52:23.918Z,8.10
2018-06-10T22:54:52.339Z,8.30
2018-06-10T22:57:20.776Z,8.63
2018-06-10T22:59:49.212Z,8.70
2018-06-10T23:02:17.684Z,9.43
2018-06-10T23:04:46.130Z,8.77
2018-06-10T23:07:14.618Z,8.53
2018-06-10T23:09:43.524Z,9.63
2018-06-10T23:12:12.072Z,9.37
2018-06-10T23:14:40.972Z,9.03
2018-06-10T23:17:09.490Z,8.70
2018-06-10T23:19:37.872Z,8.80
2018-06-10T23:22:06.325Z,8.43
2018-06-10T23:24:34.758Z,9.10
2018-06-10T23:27:03.236Z,8.03
2018-06-10T23:29:31.803Z,9.03
2018-06-10T23:32:00.619Z,9.63
2018-06-10T23:34:28.779Z,9.20
2018-06-10T23:36:57.441Z,9.13
2018-06-10T23:39:25.856Z,8.70
2018-06-10T23:41:54.321Z,10.20
2018-06-10T23:44:22.814Z,10.10
2018-06-10T23:46:51.400Z,9.50
2018-06-10T23:49:19.952Z,9.90
2018-06-10T23:51:48.491Z,9.73
2018-06-10T23:54:16.917Z,10.33
2018-06-10T23:56:45.396Z,10.10
2018-06-10T23:59:13.879Z,10.33
